createdAt,value
2022-07-25T00:02:19.700Z,24.34
2022-07-25T00:05:41.684Z,24.44
2022-07-25T00:09:04.432Z,24.45
2022-07-25T00:12:25.728Z,24.39
2022-07-25T00:15:47.219Z,24.45
2022-07-25T00:19:09.423Z,24.58
2022-07-25T00:22:30.335Z,24.50
2022-07-25T00:25:52.901Z,24.47
2022-07-25T00:29:14.313Z,24.46
2022-07-25T00:32:35.620Z,24.17
2022-07-25T00:35:56.727Z,24.44
2022-07-25T00:39:18.444Z,24.32
2022-07-25T00:42:41.176Z,24.33
2022-07-25T00:46:03.112Z,24.30
2022-07-25T00:49:25.559Z,24.23
2022-07-25T00:52:47.176Z,24.05
2022-07-25T00:56:09.403Z,24.35
2022-07-25T00:59:32.322Z,23.95
2022-07-25T01:02:53.742Z,23.95
2022-07-25T01:06:14.958Z,24.07
2022-07-25T01:09:36.393Z,24.12
2022-07-25T01:12:57.435Z,24.20
2022-07-25T01:16:20.181Z,24.36
2022-07-25T01:19:41.751Z,24.21
2022-07-25T01:23:04.407Z,24.45
2022-07-25T01:26:25.530Z,24.22
2022-07-25T01:29:46.637Z,24.27
2022-07-25T01:33:07.986Z,24.44
2022-07-25T01:36:29.311Z,24.21
2022-07-25T01:39:51.784Z,24.40
2022-07-25T01:43:14.071Z,24.23
2022-07-25T01:46:35.690Z,24.22
2022-07-25T01:49:57.271Z,24.09
2022-07-25T01:53:18.656Z,24.04
2022-07-25T01:56:48.308Z,24.23
2022-07-25T02:00:13.358Z,24.18
2022-07-25T02:03:35.037Z,24.12
2022-07-25T02:06:56.139Z,24.16
2022-07-25T02:10:17.420Z,24.12
2022-07-25T02:13:39.930Z,24.23
2022-07-25T02:17:01.743Z,24.24
2022-07-25T02:20:23.126Z,24.16
2022-07-25T02:23:45.082Z,24.06
2022-07-25T02:27:06.976Z,24.19
2022-07-25T02:30:29.990Z,24.02
2022-07-25T02:33:51.477Z,24.06
2022-07-25T02:37:13.208Z,24.01
2022-07-25T02:40:34.553Z,23.89
2022-07-25T02:43:56.038Z,23.85
2022-07-25T02:47:18.714Z,23.69
2022-07-25T02:50:40.616Z,23.68
2022-07-25T02:54:01.773Z,23.60
2022-07-25T02:57:24.272Z,23.61
2022-07-25T03:00:46.206Z,23.56
2022-07-25T03:04:09.355Z,23.37
2022-07-25T03:07:31.342Z,23.50
2022-07-25T03:10:52.710Z,23.49
2022-07-25T03:14:14.388Z,23.34
2022-07-25T03:17:35.774Z,23.28
2022-07-25T03:20:58.369Z,23.30
2022-07-25T03:24:19.899Z,23.37
2022-07-25T03:27:41.465Z,23.24
2022-07-25T03:31:02.715Z,23.15
2022-07-25T03:34:23.944Z,23.00
2022-07-25T03:37:46.771Z,23.28
2022-07-25T03:41:08.224Z,23.02
2022-07-25T03:44:29.715Z,23.16
2022-07-25T03:47:51.154Z,23.27
2022-07-25T03:51:12.320Z,23.16
2022-07-25T03:54:34.989Z,23.38
2022-07-25T03:57:55.897Z,23.30
2022-07-25T04:01:16.987Z,23.44
2022-07-25T04:04:40.261Z,23.49
2022-07-25T04:08:01.731Z,23.25
2022-07-25T04:11:24.132Z,23.34
2022-07-25T04:14:45.653Z,23.51
2022-07-25T04:18:07.244Z,23.59
2022-07-25T04:21:31.472Z,23.44
2022-07-25T04:24:52.554Z,23.57
2022-07-25T04:28:15.489Z,23.44
2022-07-25T04:31:37.065Z,23.54
2022-07-25T04:34:58.309Z,23.59
2022-07-25T04:38:20.697Z,23.55
2022-07-25T04:41:42.193Z,23.36
2022-07-25T04:45:05.103Z,23.59
2022-07-25T04:48:26.350Z,23.58
2022-07-25T04:51:48.118Z,23.73
2022-07-25T04:55:09.809Z,23.63
2022-07-25T04:58:32.561Z,23.61
2022-07-25T05:01:55.370Z,23.62
2022-07-25T05:05:21.751Z,23.78
2022-07-25T05:08:43.744Z,23.90
2022-07-25T05:12:05.585Z,23.93
2022-07-25T05:15:26.965Z,23.78
2022-07-25T05:18:49.595Z,23.91
2022-07-25T05:22:11.051Z,24.12
2022-07-25T05:25:33.249Z,24.23
2022-07-25T05:28:54.473Z,24.49
2022-07-25T05:32:15.915Z,24.65
2022-07-25T05:35:38.444Z,24.58
2022-07-25T05:38:59.458Z,24.69
2022-07-25T05:42:20.421Z,24.85
2022-07-25T05:45:42.533Z,24.99
2022-07-25T05:49:04.458Z,24.84
2022-07-25T05:52:28.250Z,25.06
2022-07-25T05:55:49.806Z,25.17
2022-07-25T05:59:11.880Z,25.41
2022-07-25T06:02:33.087Z,25.33
2022-07-25T06:05:56.259Z,25.47
2022-07-25T06:09:19.733Z,25.96
2022-07-25T06:12:41.318Z,25.57
2022-07-25T06:16:04.056Z,25.47
2022-07-25T06:19:25.311Z,26.00
2022-07-25T06:22:46.567Z,26.55
2022-07-25T06:26:11.320Z,26.69
2022-07-25T06:29:32.639Z,26.72
2022-07-25T06:32:53.833Z,26.56
2022-07-25T06:36:15.313Z,26.68
2022-07-25T06:39:36.301Z,27.24
2022-07-25T06:42:59.778Z,27.14
2022-07-25T06:46:21.599Z,27.27
2022-07-25T06:49:43.666Z,27.63
2022-07-25T06:53:04.987Z,27.65
2022-07-25T06:56:31.299Z,28.19
2022-07-25T06:59:54.046Z,28.25
2022-07-25T07:03:15.367Z,28.22
2022-07-25T07:06:38.657Z,28.69
2022-07-25T07:10:00.424Z,29.13
2022-07-25T07:13:24.617Z,29.40
2022-07-25T07:16:47.568Z,29.39
2022-07-25T07:20:11.037Z,29.79
2022-07-25T07:23:32.215Z,29.75
2022-07-25T07:26:55.040Z,30.31
2022-07-25T07:30:20.847Z,30.51
2022-07-25T07:33:46.808Z,30.72
2022-07-25T07:37:08.067Z,31.41
2022-07-25T07:40:29.364Z,31.51
2022-07-25T07:43:51.457Z,31.88
2022-07-25T07:47:14.326Z,31.65
2022-07-25T07:50:37.750Z,31.71
2022-07-25T07:54:16.817Z,32.12
2022-07-25T07:57:39.339Z,32.20
2022-07-25T08:01:01.072Z,32.40
2022-07-25T08:04:22.332Z,32.29
2022-07-25T08:07:45.271Z,32.57
2022-07-25T08:11:06.712Z,32.54
2022-07-25T08:14:27.892Z,33.12
2022-07-25T08:17:50.921Z,33.40
2022-07-25T08:21:12.096Z,33.52
2022-07-25T08:24:34.608Z,33.34
2022-07-25T08:27:55.961Z,33.98
2022-07-25T08:31:17.345Z,33.61
2022-07-25T08:34:38.933Z,34.17
2022-07-25T08:38:01.568Z,34.59
2022-07-25T08:41:25.012Z,33.77
2022-07-25T08:44:51.670Z,34.32
2022-07-25T08:48:13.366Z,34.55
2022-07-25T08:51:34.945Z,35.13
2022-07-25T08:54:56.342Z,34.49
2022-07-25T08:58:19.071Z,34.77
2022-07-25T09:01:41.081Z,34.35
2022-07-25T09:05:02.350Z,34.54
2022-07-25T09:08:23.591Z,35.02
2022-07-25T09:11:45.469Z,35.41
2022-07-25T09:15:09.827Z,34.60
2022-07-25T09:18:33.675Z,34.07
2022-07-25T09:22:02.580Z,33.58
2022-07-25T09:25:26.170Z,34.67
2022-07-25T09:28:49.320Z,34.73
2022-07-25T09:32:20.691Z,34.88
2022-07-25T09:35:41.780Z,34.70
2022-07-25T09:39:05.667Z,33.81
2022-07-25T09:42:29.102Z,35.07
2022-07-25T09:45:52.397Z,35.04
2022-07-25T09:49:16.419Z,35.58
2022-07-25T09:52:39.238Z,35.72
2022-07-25T09:56:01.253Z,35.74
2022-07-25T09:59:22.937Z,36.26
2022-07-25T10:02:51.566Z,36.50
2022-07-25T10:06:21.893Z,36.64
2022-07-25T10:09:45.188Z,36.27
2022-07-25T10:13:11.049Z,36.33
2022-07-25T10:16:33.132Z,36.61
2022-07-25T10:19:58.697Z,36.56
2022-07-25T10:23:24.113Z,36.60
2022-07-25T10:26:53.398Z,36.68
2022-07-25T10:30:21.253Z,35.54
2022-07-25T10:33:43.533Z,35.29
2022-07-25T10:37:13.228Z,34.76
2022-07-25T10:40:39.298Z,35.08
2022-07-25T10:44:03.932Z,34.28
2022-07-25T10:47:28.709Z,35.48
2022-07-25T10:50:56.603Z,35.52
2022-07-25T10:54:18.577Z,35.79
2022-07-25T10:57:54.951Z,35.14
2022-07-25T11:01:24.526Z,34.77
2022-07-25T11:04:46.320Z,35.12
2022-07-25T11:08:21.223Z,35.68
2022-07-25T11:11:48.117Z,35.52
2022-07-25T11:15:16.934Z,35.70
2022-07-25T11:18:42.116Z,35.13
2022-07-25T11:22:05.301Z,35.50
2022-07-25T11:25:26.363Z,35.40
2022-07-25T11:28:49.185Z,35.60
2022-07-25T11:32:13.823Z,36.08
2022-07-25T11:35:35.650Z,36.85
2022-07-25T11:38:57.500Z,36.17
2022-07-25T11:42:20.370Z,36.22
2022-07-25T11:45:41.950Z,35.88
2022-07-25T11:49:09.034Z,36.85
2022-07-25T11:52:32.249Z,37.16
2022-07-25T11:55:53.777Z,37.29
2022-07-25T11:59:16.781Z,37.60
2022-07-25T12:02:38.987Z,37.18
2022-07-25T12:06:08.811Z,37.10
2022-07-25T12:09:30.821Z,36.64
2022-07-25T12:12:54.611Z,36.04
2022-07-25T12:16:17.238Z,36.80
2022-07-25T12:19:41.142Z,36.25
2022-07-25T12:23:05.616Z,36.01
2022-07-25T12:26:26.595Z,36.86
2022-07-25T12:29:47.965Z,37.62
2022-07-25T12:33:09.366Z,36.32
2022-07-25T12:36:30.838Z,36.07
2022-07-25T12:39:53.357Z,36.10
2022-07-25T12:43:14.458Z,35.71
2022-07-25T12:46:36.055Z,35.79
2022-07-25T12:49:57.363Z,35.65
2022-07-25T12:53:18.300Z,35.45
2022-07-25T12:56:41.843Z,35.26
2022-07-25T13:00:03.419Z,35.05
2022-07-25T13:03:24.469Z,35.12
2022-07-25T13:06:45.949Z,35.53
2022-07-25T13:10:08.326Z,34.87
2022-07-25T13:13:31.267Z,35.25
2022-07-25T13:16:52.711Z,35.70
2022-07-25T13:20:15.576Z,35.33
2022-07-25T13:23:36.845Z,35.04
2022-07-25T13:26:58.126Z,34.78
2022-07-25T13:30:20.782Z,34.92
2022-07-25T13:33:43.685Z,34.92
2022-07-25T13:37:05.450Z,34.69
2022-07-25T13:40:26.626Z,34.78
2022-07-25T13:43:47.921Z,34.36
2022-07-25T13:47:10.768Z,34.40
2022-07-25T13:50:32.537Z,34.19
2022-07-25T13:53:53.620Z,34.17
2022-07-25T13:57:15.260Z,33.70
2022-07-25T14:00:36.565Z,33.69
2022-07-25T14:03:59.224Z,33.65
2022-07-25T14:07:20.364Z,33.73
2022-07-25T14:10:42.174Z,33.72
2022-07-25T14:14:04.768Z,33.52
2022-07-25T14:17:30.109Z,33.02
2022-07-25T14:20:52.722Z,33.06
2022-07-25T14:24:14.293Z,33.32
2022-07-25T14:27:35.810Z,33.47
2022-07-25T14:30:57.254Z,33.93
2022-07-25T14:34:19.198Z,33.77
2022-07-25T14:37:41.887Z,33.95
2022-07-25T14:41:03.054Z,33.93
2022-07-25T14:44:24.198Z,33.59
2022-07-25T14:47:45.635Z,33.94
2022-07-25T14:51:08.048Z,34.13
2022-07-25T14:54:31.094Z,33.57
2022-07-25T14:57:52.837Z,33.70
2022-07-25T15:01:18.412Z,33.73
2022-07-25T15:04:40.427Z,33.49
2022-07-25T15:08:02.147Z,34.35
2022-07-25T15:11:24.802Z,33.84
2022-07-25T15:14:46.184Z,34.30
2022-07-25T15:18:13.420Z,33.93
2022-07-25T15:21:35.659Z,33.96
2022-07-25T15:25:34.798Z,34.83
2022-07-25T15:28:40.461Z,34.46
2022-07-25T15:32:03.521Z,33.70
2022-07-25T15:35:24.935Z,33.60
2022-07-25T15:38:46.339Z,33.30
2022-07-25T15:42:07.893Z,33.54
2022-07-25T15:45:32.841Z,34.40
2022-07-25T15:48:54.424Z,34.36
2022-07-25T15:52:15.687Z,34.27
2022-07-25T15:55:38.843Z,33.86
2022-07-25T15:58:59.983Z,34.29
2022-07-25T16:02:22.285Z,34.07
2022-07-25T16:05:44.648Z,33.63
2022-07-25T16:09:06.573Z,33.53
2022-07-25T16:12:28.918Z,33.44
2022-07-25T16:15:50.545Z,33.24
2022-07-25T16:19:13.714Z,33.24
2022-07-25T16:22:34.992Z,33.09
2022-07-25T16:25:56.430Z,32.91
2022-07-25T16:29:17.885Z,32.74
2022-07-25T16:32:40.655Z,32.58
2022-07-25T16:36:04.448Z,32.58
2022-07-25T16:39:25.903Z,32.40
2022-07-25T16:42:49.013Z,31.09
2022-07-25T16:46:10.545Z,30.10
2022-07-25T16:49:32.013Z,29.73
2022-07-25T16:52:54.891Z,29.25
2022-07-25T16:56:17.063Z,28.96
2022-07-25T16:59:38.442Z,29.05
2022-07-25T17:02:59.767Z,29.15
2022-07-25T17:06:22.507Z,29.30
2022-07-25T17:09:45.542Z,29.11
2022-07-25T17:13:06.969Z,28.98
2022-07-25T17:16:28.630Z,28.93
2022-07-25T17:19:50.236Z,28.34
2022-07-25T17:23:11.615Z,28.42
2022-07-25T17:26:34.849Z,28.58
2022-07-25T17:29:56.193Z,28.36
2022-07-25T17:33:17.482Z,28.33
2022-07-25T17:36:38.477Z,28.08
2022-07-25T17:40:00.198Z,27.74
2022-07-25T17:43:23.162Z,27.70
2022-07-25T17:46:44.953Z,27.35
2022-07-25T17:50:07.650Z,27.36
2022-07-25T17:53:30.670Z,27.19
2022-07-25T17:56:52.021Z,27.35
2022-07-25T18:00:15.648Z,27.18
2022-07-25T18:03:36.891Z,27.23
2022-07-25T18:06:59.162Z,26.97
2022-07-25T18:10:21.641Z,26.95
2022-07-25T18:13:43.677Z,26.83
2022-07-25T18:17:07.146Z,26.84
2022-07-25T18:20:28.987Z,26.43
2022-07-25T18:23:50.642Z,26.00
2022-07-25T18:27:12.701Z,26.02
2022-07-25T18:30:34.089Z,25.95
2022-07-25T18:33:56.577Z,25.71
2022-07-25T18:37:17.899Z,25.75
2022-07-25T18:40:38.947Z,25.84
2022-07-25T18:44:03.826Z,25.99
2022-07-25T18:47:27.944Z,25.73
2022-07-25T18:50:55.230Z,25.54
2022-07-25T18:54:16.368Z,25.56
2022-07-25T18:57:37.855Z,25.63
2022-07-25T19:00:59.183Z,25.45
2022-07-25T19:04:20.710Z,25.37
2022-07-25T19:07:43.775Z,25.11
2022-07-25T19:11:05.763Z,25.32
2022-07-25T19:14:27.851Z,25.37
2022-07-25T19:17:49.579Z,25.01
2022-07-25T19:21:10.619Z,24.81
2022-07-25T19:24:33.240Z,24.58
2022-07-25T19:27:55.469Z,24.92
2022-07-25T19:31:16.681Z,24.85
2022-07-25T19:34:37.974Z,24.58
2022-07-25T19:37:59.479Z,25.05
2022-07-25T19:41:22.257Z,24.75
2022-07-25T19:44:44.023Z,25.12
2022-07-25T19:48:05.284Z,25.11
2022-07-25T19:51:26.927Z,25.19
2022-07-25T19:54:48.392Z,24.81
2022-07-25T19:58:11.375Z,25.19
2022-07-25T20:01:34.254Z,24.77
2022-07-25T20:04:55.630Z,24.50
2022-07-25T20:08:18.749Z,24.70
2022-07-25T20:11:41.183Z,24.82
2022-07-25T20:15:04.754Z,24.92
2022-07-25T20:18:26.027Z,24.64
2022-07-25T20:21:48.622Z,24.72
2022-07-25T20:25:12.214Z,24.59
2022-07-25T20:28:33.617Z,24.58
2022-07-25T20:31:56.082Z,24.84
2022-07-25T20:35:17.591Z,24.94
2022-07-25T20:38:39.010Z,24.91
2022-07-25T20:42:00.328Z,24.93
2022-07-25T20:45:21.372Z,24.73
2022-07-25T20:48:45.129Z,24.85
2022-07-25T20:52:07.714Z,24.83
2022-07-25T20:55:31.248Z,24.85
2022-07-25T20:58:52.647Z,24.76
2022-07-25T21:02:17.255Z,24.84
2022-07-25T21:05:40.395Z,24.45
2022-07-25T21:09:01.736Z,24.23
2022-07-25T21:12:24.291Z,24.23
2022-07-25T21:15:45.600Z,24.15
2022-07-25T21:19:07.091Z,24.18
2022-07-25T21:22:29.963Z,24.17
2022-07-25T21:25:51.059Z,24.09
2022-07-25T21:29:13.331Z,23.87
2022-07-25T21:32:35.186Z,24.15
2022-07-25T21:35:57.298Z,24.23
2022-07-25T21:39:20.261Z,24.13
2022-07-25T21:42:42.630Z,24.19
2022-07-25T21:46:04.144Z,23.83
2022-07-25T21:49:43.370Z,24.18
2022-07-25T21:53:06.359Z,24.04
2022-07-25T21:56:29.053Z,23.84
2022-07-25T21:59:50.606Z,23.82
2022-07-25T22:03:11.941Z,23.63
2022-07-25T22:06:33.250Z,23.59
2022-07-25T22:09:54.836Z,23.92
2022-07-25T22:13:17.275Z,23.79
2022-07-25T22:16:40.329Z,23.74
2022-07-25T22:20:02.153Z,23.71
2022-07-25T22:23:23.671Z,23.66
2022-07-25T22:26:45.308Z,23.51
2022-07-25T22:30:13.345Z,23.23
2022-07-25T22:33:38.243Z,23.29
2022-07-25T22:36:59.564Z,23.10
2022-07-25T22:40:21.207Z,23.04
2022-07-25T22:43:57.446Z,22.76
2022-07-25T22:47:21.144Z,22.92
2022-07-25T22:50:42.315Z,22.82
2022-07-25T22:54:03.897Z,22.81
2022-07-25T22:57:27.482Z,22.80
2022-07-25T23:00:48.685Z,22.74
2022-07-25T23:04:12.579Z,22.96
2022-07-25T23:07:34.524Z,22.93
2022-07-25T23:10:56.199Z,22.92
2022-07-25T23:14:17.935Z,22.91
2022-07-25T23:17:39.682Z,22.78
2022-07-25T23:21:02.729Z,23.11
2022-07-25T23:24:24.086Z,22.88
2022-07-25T23:27:46.013Z,23.11
2022-07-25T23:31:08.777Z,22.62
2022-07-25T23:34:30.581Z,22.76
2022-07-25T23:37:53.383Z,22.70
2022-07-25T23:41:15.778Z,22.60
2022-07-25T23:44:37.994Z,22.39
2022-07-25T23:47:59.756Z,22.48
2022-07-25T23:51:20.950Z,22.49
2022-07-25T23:54:44.146Z,22.41
2022-07-25T23:58:05.886Z,22.38
